createdAt,value
2023-05-03T00:02:25.489Z,11.04
2023-05-03T00:04:53.803Z,10.99
2023-05-03T00:07:22.368Z,10.96
2023-05-03T00:09:50.204Z,10.95
2023-05-03T00:12:17.340Z,10.95
2023-05-03T00:14:46.410Z,10.84
2023-05-03T00:17:13.611Z,10.88
2023-05-03T00:19:40.748Z,10.86
2023-05-03T00:22:09.082Z,10.81
2023-05-03T00:24:36.332Z,10.77
2023-05-03T00:27:04.735Z,10.75
2023-05-03T00:29:31.821Z,10.68
2023-05-03T00:32:00.426Z,10.59
2023-05-03T00:34:27.844Z,10.49
2023-05-03T00:36:54.942Z,10.43
2023-05-03T00:39:22.062Z,10.39
2023-05-03T00:41:49.135Z,10.34
2023-05-03T00:44:16.357Z,10.30
2023-05-03T00:46:43.446Z,10.27
2023-05-03T00:49:10.811Z,10.17
2023-05-03T00:51:37.910Z,10.05
2023-05-03T00:54:05.319Z,9.95
2023-05-03T00:56:44.056Z,9.90
2023-05-03T00:59:18.999Z,9.83
2023-05-03T01:01:51.319Z,9.73
2023-05-03T01:04:20.314Z,9.67
2023-05-03T01:06:55.830Z,9.58
2023-05-03T01:09:37.728Z,9.45
2023-05-03T01:12:34.782Z,9.33
2023-05-03T01:15:33.418Z,9.22
2023-05-03T01:18:12.622Z,9.15
2023-05-03T01:20:44.214Z,9.06
2023-05-03T01:23:18.919Z,8.96
2023-05-03T01:25:45.932Z,8.88
2023-05-03T01:28:13.086Z,8.83
2023-05-03T01:30:41.288Z,8.76
2023-05-03T01:33:17.149Z,8.73
2023-05-03T01:36:05.379Z,8.69
2023-05-03T01:38:36.738Z,8.58
2023-05-03T01:41:09.285Z,8.52
2023-05-03T01:43:37.520Z,8.49
2023-05-03T01:46:04.865Z,8.48
2023-05-03T01:48:31.961Z,8.45
2023-05-03T01:50:59.091Z,8.38
2023-05-03T01:53:26.211Z,8.27
2023-05-03T01:55:53.295Z,8.28
2023-05-03T01:58:20.889Z,8.21
2023-05-03T02:00:48.148Z,8.13
2023-05-03T02:03:15.247Z,8.08
2023-05-03T02:05:42.660Z,8.03
2023-05-03T02:08:09.768Z,7.96
2023-05-03T02:10:36.925Z,7.95
2023-05-03T02:13:04.264Z,7.92
2023-05-03T02:15:32.246Z,7.88
2023-05-03T02:18:02.701Z,7.85
2023-05-03T02:20:35.519Z,7.80
2023-05-03T02:23:02.741Z,7.71
2023-05-03T02:25:30.113Z,7.71
2023-05-03T02:27:57.170Z,7.69
2023-05-03T02:30:24.961Z,7.64
2023-05-03T02:32:52.149Z,7.65
2023-05-03T02:35:20.692Z,7.64
2023-05-03T02:37:48.199Z,7.59
2023-05-03T02:40:16.358Z,7.52
2023-05-03T02:42:45.749Z,7.44
2023-05-03T02:45:15.687Z,7.45
2023-05-03T02:47:42.753Z,7.42
2023-05-03T02:50:10.116Z,7.38
2023-05-03T02:52:39.775Z,7.33
2023-05-03T02:55:07.105Z,7.31
2023-05-03T02:57:34.772Z,7.25
2023-05-03T03:00:05.152Z,7.18
2023-05-03T03:02:33.206Z,7.15
2023-05-03T03:05:00.792Z,7.09
2023-05-03T03:07:28.677Z,7.06
2023-05-03T03:09:57.621Z,7.04
2023-05-03T03:12:26.407Z,7.04
2023-05-03T03:14:54.721Z,7.07
2023-05-03T03:17:21.953Z,7.07
2023-05-03T03:19:49.092Z,7.08
2023-05-03T03:22:16.585Z,7.06
2023-05-03T03:24:45.401Z,7.12
2023-05-03T03:27:12.970Z,7.11
2023-05-03T03:29:40.312Z,7.12
2023-05-03T03:32:10.923Z,7.12
2023-05-03T03:34:37.969Z,7.19
2023-05-03T03:37:05.853Z,7.17
2023-05-03T03:39:33.406Z,7.15
2023-05-03T03:42:03.128Z,7.16
2023-05-03T03:44:30.728Z,7.17
2023-05-03T03:46:57.976Z,7.21
2023-05-03T03:49:25.521Z,7.25
2023-05-03T03:51:52.672Z,7.31
2023-05-03T03:54:19.825Z,7.32
2023-05-03T03:56:49.723Z,7.41
2023-05-03T03:59:17.241Z,7.48
2023-05-03T04:01:45.266Z,7.63
2023-05-03T04:04:12.522Z,7.79
2023-05-03T04:06:39.689Z,7.90
2023-05-03T04:09:10.738Z,8.03
2023-05-03T04:11:38.591Z,8.13
2023-05-03T04:14:06.121Z,8.16
2023-05-03T04:16:33.671Z,8.26
2023-05-03T04:19:03.104Z,8.29
2023-05-03T04:21:32.510Z,8.35
2023-05-03T04:24:00.791Z,8.48
2023-05-03T04:26:32.123Z,8.56
2023-05-03T04:29:10.194Z,8.58
2023-05-03T04:31:39.094Z,8.70
2023-05-03T04:34:06.684Z,8.71
2023-05-03T04:36:34.631Z,8.81
2023-05-03T04:39:02.012Z,8.84
2023-05-03T04:41:29.196Z,8.96
2023-05-03T04:43:56.763Z,9.00
2023-05-03T04:46:24.027Z,9.05
2023-05-03T04:48:51.809Z,9.06
2023-05-03T04:51:19.642Z,9.13
2023-05-03T04:53:47.730Z,9.17
2023-05-03T04:56:20.636Z,9.16
2023-05-03T04:58:47.687Z,9.23
2023-05-03T05:01:16.684Z,9.23
2023-05-03T05:03:44.067Z,9.21
2023-05-03T05:06:17.545Z,9.28
2023-05-03T05:08:45.553Z,9.32
2023-05-03T05:11:15.059Z,9.31
2023-05-03T05:13:42.523Z,9.33
2023-05-03T05:16:09.779Z,9.42
2023-05-03T05:18:39.449Z,9.56
2023-05-03T05:21:08.849Z,9.68
2023-05-03T05:23:37.762Z,9.73
2023-05-03T05:26:05.480Z,9.79
2023-05-03T05:28:33.275Z,9.84
2023-05-03T05:31:01.184Z,9.85
2023-05-03T05:33:29.211Z,9.94
2023-05-03T05:35:57.290Z,9.97
2023-05-03T05:38:24.566Z,10.00
2023-05-03T05:40:55.974Z,9.99
2023-05-03T05:43:23.435Z,9.99
2023-05-03T05:45:50.680Z,9.94
2023-05-03T05:48:18.432Z,10.02
2023-05-03T05:50:46.257Z,10.11
2023-05-03T05:53:14.965Z,10.20
2023-05-03T05:55:48.807Z,10.21
2023-05-03T05:58:16.351Z,10.30
2023-05-03T06:00:49.583Z,10.37
2023-05-03T06:03:17.814Z,10.47
2023-05-03T06:05:47.118Z,10.53
2023-05-03T06:08:14.277Z,10.62
2023-05-03T06:10:41.647Z,10.75
2023-05-03T06:13:09.925Z,10.92
2023-05-03T06:15:37.373Z,11.09
2023-05-03T06:18:04.879Z,11.24
2023-05-03T06:20:32.291Z,11.42
2023-05-03T06:23:02.173Z,11.65
2023-05-03T06:25:29.304Z,11.82
2023-05-03T06:27:57.369Z,11.95
2023-05-03T06:30:28.767Z,12.08
2023-05-03T06:33:02.092Z,12.14
2023-05-03T06:35:29.653Z,12.26
2023-05-03T06:37:56.734Z,12.36
2023-05-03T06:40:26.092Z,12.53
2023-05-03T06:42:53.217Z,12.73
2023-05-03T06:45:31.862Z,12.90
2023-05-03T06:47:59.419Z,13.05
2023-05-03T06:50:27.028Z,13.18
2023-05-03T06:52:54.883Z,13.39
2023-05-03T06:55:21.944Z,13.49
2023-05-03T06:57:49.373Z,13.60
2023-05-03T07:00:17.160Z,13.68
2023-05-03T07:02:44.659Z,13.82
2023-05-03T07:05:12.065Z,13.99
2023-05-03T07:07:39.290Z,14.08
2023-05-03T07:10:07.442Z,14.17
2023-05-03T07:12:34.595Z,14.33
2023-05-03T07:15:01.712Z,14.50
2023-05-03T07:17:28.918Z,14.61
2023-05-03T07:19:57.498Z,14.70
2023-05-03T07:22:28.167Z,14.70
2023-05-03T07:24:55.960Z,14.84
2023-05-03T07:27:23.102Z,14.94
2023-05-03T07:29:50.216Z,15.05
2023-05-03T07:32:17.384Z,15.16
2023-05-03T07:34:44.682Z,15.25
2023-05-03T07:37:12.224Z,15.41
2023-05-03T07:39:39.838Z,15.49
2023-05-03T07:42:07.815Z,15.58
2023-05-03T07:44:34.908Z,15.68
2023-05-03T07:47:01.996Z,15.77
2023-05-03T07:49:29.155Z,15.79
2023-05-03T07:51:56.558Z,15.75
2023-05-03T07:54:23.751Z,15.89
2023-05-03T07:56:52.108Z,16.09
2023-05-03T07:59:20.408Z,15.99
2023-05-03T08:01:47.543Z,15.73
2023-05-03T08:04:14.887Z,15.72
2023-05-03T08:06:43.244Z,15.48
2023-05-03T08:09:11.781Z,15.30
2023-05-03T08:11:39.501Z,15.54
2023-05-03T08:14:07.718Z,15.77
2023-05-03T08:16:34.849Z,15.95
2023-05-03T08:19:02.100Z,15.74
2023-05-03T08:21:30.512Z,15.34
2023-05-03T08:23:57.840Z,14.91
2023-05-03T08:26:28.738Z,15.00
2023-05-03T08:28:56.426Z,15.31
2023-05-03T08:31:23.744Z,15.18
2023-05-03T08:33:51.066Z,14.88
2023-05-03T08:36:18.545Z,14.54
2023-05-03T08:38:46.262Z,14.17
2023-05-03T08:41:32.265Z,14.45
2023-05-03T08:44:01.168Z,15.02
2023-05-03T08:46:29.148Z,15.48
2023-05-03T08:48:56.783Z,15.86
2023-05-03T08:51:25.311Z,16.22
2023-05-03T08:53:52.810Z,16.29
2023-05-03T08:56:41.762Z,15.85
2023-05-03T08:59:09.479Z,15.65
2023-05-03T09:01:37.742Z,15.78
2023-05-03T09:04:06.030Z,16.12
2023-05-03T09:06:34.625Z,16.43
2023-05-03T09:09:05.462Z,16.69
2023-05-03T09:11:34.301Z,16.82
2023-05-03T09:14:11.577Z,16.94
2023-05-03T09:16:40.661Z,16.88
2023-05-03T09:19:09.857Z,16.86
2023-05-03T09:21:37.617Z,16.94
2023-05-03T09:24:24.976Z,17.15
2023-05-03T09:26:53.304Z,17.20
2023-05-03T09:29:36.229Z,17.29
2023-05-03T09:32:06.126Z,17.50
2023-05-03T09:34:34.126Z,17.65
2023-05-03T09:37:01.675Z,17.56
2023-05-03T09:39:28.936Z,17.22
2023-05-03T09:41:56.488Z,17.02
2023-05-03T09:44:42.204Z,17.06
2023-05-03T09:47:10.288Z,17.34
2023-05-03T09:49:38.479Z,17.62
2023-05-03T09:52:07.255Z,17.72
2023-05-03T09:54:38.059Z,17.96
2023-05-03T09:57:06.746Z,17.63
2023-05-03T09:59:35.372Z,17.26
2023-05-03T10:02:07.938Z,17.40
2023-05-03T10:04:48.440Z,17.62
2023-05-03T10:07:18.826Z,17.84
2023-05-03T10:09:47.042Z,18.00
2023-05-03T10:12:17.553Z,18.03
2023-05-03T10:14:47.844Z,17.90
2023-05-03T10:17:47.709Z,18.04
2023-05-03T10:20:36.887Z,18.23
2023-05-03T10:23:11.880Z,18.30
2023-05-03T10:25:41.393Z,18.27
2023-05-03T10:28:09.928Z,18.24
2023-05-03T10:30:39.455Z,18.33
2023-05-03T10:33:12.431Z,18.40
2023-05-03T10:35:42.629Z,18.50
2023-05-03T10:38:22.153Z,18.57
2023-05-03T10:40:49.744Z,18.29
2023-05-03T10:43:34.811Z,17.76
2023-05-03T10:46:29.568Z,17.56
2023-05-03T10:49:26.701Z,17.90
2023-05-03T10:51:54.005Z,18.26
2023-05-03T10:54:21.428Z,18.35
2023-05-03T10:56:53.409Z,18.43
2023-05-03T10:59:22.206Z,18.54
2023-05-03T11:01:54.113Z,18.64
2023-05-03T11:04:34.154Z,18.68
2023-05-03T11:07:01.967Z,18.65
2023-05-03T11:09:34.641Z,18.52
2023-05-03T11:12:06.699Z,18.50
2023-05-03T11:14:33.858Z,18.58
2023-05-03T11:17:02.218Z,18.35
2023-05-03T11:19:29.816Z,18.31
2023-05-03T11:21:58.486Z,18.48
2023-05-03T11:24:25.794Z,18.36
2023-05-03T11:26:53.090Z,18.37
2023-05-03T11:29:21.823Z,18.55
2023-05-03T11:31:49.154Z,18.65
2023-05-03T11:34:16.402Z,18.69
2023-05-03T11:36:43.879Z,18.54
2023-05-03T11:39:16.453Z,18.28
2023-05-03T11:41:44.277Z,18.37
2023-05-03T11:44:17.234Z,18.41
2023-05-03T11:46:47.759Z,18.45
2023-05-03T11:49:19.753Z,18.59
2023-05-03T11:51:51.599Z,18.29
2023-05-03T11:54:26.253Z,18.04
2023-05-03T11:56:59.623Z,18.10
2023-05-03T11:59:40.642Z,18.20
2023-05-03T12:02:10.540Z,18.27
2023-05-03T12:04:45.535Z,18.27
2023-05-03T12:07:15.855Z,18.25
2023-05-03T12:09:52.811Z,18.04
2023-05-03T12:12:31.495Z,17.63
2023-05-03T12:15:03.552Z,17.19
2023-05-03T12:17:37.025Z,17.17
2023-05-03T12:22:57.720Z,17.82
2023-05-03T12:25:28.323Z,18.06
2023-05-03T12:30:33.834Z,18.30
2023-05-03T12:33:04.326Z,18.22
2023-05-03T12:35:34.213Z,18.15
2023-05-03T12:38:04.582Z,18.23
2023-05-03T12:40:34.844Z,18.27
2023-05-03T12:43:02.339Z,18.03
2023-05-03T12:45:34.395Z,17.72
2023-05-03T12:48:03.108Z,17.42
2023-05-03T12:50:32.078Z,17.16
2023-05-03T12:53:02.623Z,16.96
2023-05-03T12:55:35.188Z,16.77
2023-05-03T12:58:36.848Z,16.59
2023-05-03T13:01:26.904Z,16.39
2023-05-03T13:03:43.483Z,16.26
2023-05-03T13:06:13.987Z,16.28
2023-05-03T13:11:13.299Z,16.58
2023-05-03T13:13:40.986Z,16.73
2023-05-03T13:16:09.447Z,16.92
2023-05-03T13:18:36.703Z,17.16
2023-05-03T13:21:04.152Z,17.40
2023-05-03T13:23:31.381Z,17.38
2023-05-03T13:25:59.485Z,17.40
2023-05-03T13:28:27.452Z,17.42
2023-05-03T13:30:54.822Z,17.56
2023-05-03T13:33:22.481Z,17.58
2023-05-03T13:35:49.769Z,17.43
2023-05-03T13:38:16.933Z,17.32
2023-05-03T13:40:44.133Z,17.35
2023-05-03T13:43:11.426Z,17.18
2023-05-03T13:45:38.636Z,16.92
2023-05-03T13:48:17.113Z,16.73
2023-05-03T13:50:46.162Z,16.69
2023-05-03T13:53:13.341Z,16.73
2023-05-03T13:55:40.724Z,16.77
2023-05-03T13:58:08.824Z,16.76
2023-05-03T14:00:36.316Z,16.68
2023-05-03T14:03:04.751Z,16.54
2023-05-03T14:05:32.182Z,16.42
2023-05-03T14:07:59.782Z,16.34
2023-05-03T14:10:27.837Z,16.25
2023-05-03T14:12:55.136Z,16.17
2023-05-03T14:15:22.401Z,16.10
2023-05-03T14:17:49.849Z,16.09
2023-05-03T14:20:20.172Z,16.18
2023-05-03T14:22:47.264Z,16.32
2023-05-03T14:25:14.360Z,16.47
2023-05-03T14:27:41.889Z,16.47
2023-05-03T14:30:10.660Z,16.39
2023-05-03T14:32:37.796Z,16.32
2023-05-03T14:35:05.745Z,16.12
2023-05-03T14:37:33.799Z,16.16
2023-05-03T14:40:01.113Z,16.19
2023-05-03T14:42:32.330Z,16.25
2023-05-03T14:45:00.603Z,16.30
2023-05-03T14:47:27.921Z,16.30
2023-05-03T14:49:56.433Z,16.20
2023-05-03T14:52:23.503Z,16.11
2023-05-03T14:54:50.659Z,16.02
2023-05-03T14:57:17.935Z,15.91
2023-05-03T14:59:45.906Z,15.89
2023-05-03T15:02:13.088Z,15.84
2023-05-03T15:04:40.544Z,15.77
2023-05-03T15:07:09.386Z,15.71
2023-05-03T15:09:38.162Z,15.67
2023-05-03T15:12:05.603Z,15.59
2023-05-03T15:14:32.776Z,15.58
2023-05-03T15:17:00.404Z,15.56
2023-05-03T15:19:28.522Z,15.57
2023-05-03T15:21:55.802Z,15.64
2023-05-03T15:24:23.216Z,15.71
2023-05-03T15:26:51.771Z,15.75
2023-05-03T15:29:19.011Z,15.74
2023-05-03T15:31:46.628Z,15.68
2023-05-03T15:34:14.239Z,15.59
2023-05-03T15:36:41.476Z,15.62
2023-05-03T15:39:09.572Z,15.68
2023-05-03T15:41:36.889Z,15.72
2023-05-03T15:44:05.635Z,15.78
2023-05-03T15:46:34.488Z,15.79
2023-05-03T15:49:02.019Z,15.75
2023-05-03T15:51:29.657Z,15.76
2023-05-03T15:53:56.810Z,15.73
2023-05-03T15:56:24.449Z,15.68
2023-05-03T15:58:52.058Z,15.65
2023-05-03T16:01:19.411Z,15.67
2023-05-03T16:03:48.144Z,15.69
2023-05-03T16:06:18.707Z,15.78
2023-05-03T16:08:46.186Z,15.84
2023-05-03T16:11:13.542Z,15.94
2023-05-03T16:13:41.044Z,15.93
2023-05-03T16:16:08.296Z,15.87
2023-05-03T16:18:35.527Z,15.81
2023-05-03T16:21:03.110Z,15.72
2023-05-03T16:23:30.385Z,15.66
2023-05-03T16:25:57.699Z,15.65
2023-05-03T16:28:25.057Z,15.57
2023-05-03T16:30:52.217Z,15.52
2023-05-03T16:33:19.653Z,15.48
2023-05-03T16:35:46.700Z,15.44
2023-05-03T16:38:13.825Z,15.36
2023-05-03T16:40:42.569Z,15.33
2023-05-03T16:43:10.439Z,15.27
2023-05-03T16:45:37.903Z,15.18
2023-05-03T16:48:07.387Z,15.06
2023-05-03T16:50:37.309Z,15.05
2023-05-03T16:53:04.526Z,14.98
2023-05-03T16:55:31.930Z,14.91
2023-05-03T16:58:00.105Z,14.87
2023-05-03T17:00:27.735Z,14.87
2023-05-03T17:02:54.999Z,14.85
2023-05-03T17:05:22.780Z,14.82
2023-05-03T17:07:49.862Z,14.81
2023-05-03T17:10:17.124Z,14.80
2023-05-03T17:12:47.495Z,14.79
2023-05-03T17:15:14.706Z,14.71
2023-05-03T17:17:41.869Z,14.69
2023-05-03T17:20:11.087Z,14.66
2023-05-03T17:22:38.293Z,14.60
2023-05-03T17:25:06.716Z,14.52
2023-05-03T17:27:33.897Z,14.40
2023-05-03T17:30:01.120Z,14.32
2023-05-03T17:32:28.282Z,14.22
2023-05-03T17:34:56.952Z,14.13
2023-05-03T17:37:24.995Z,14.08
2023-05-03T17:39:52.274Z,14.09
2023-05-03T17:42:19.410Z,14.05
2023-05-03T17:44:46.851Z,14.00
2023-05-03T17:47:13.962Z,13.94
2023-05-03T17:49:41.291Z,13.85
2023-05-03T17:52:08.437Z,13.82
2023-05-03T17:54:35.766Z,13.73
2023-05-03T17:57:03.533Z,13.66
2023-05-03T17:59:30.735Z,13.63
2023-05-03T18:01:57.938Z,13.62
2023-05-03T18:04:27.036Z,13.57
2023-05-03T18:06:54.305Z,13.53
2023-05-03T18:09:21.452Z,13.45
2023-05-03T18:11:49.525Z,13.34
2023-05-03T18:14:16.679Z,13.28
2023-05-03T18:16:43.920Z,13.21
2023-05-03T18:19:12.737Z,13.17
2023-05-03T18:21:40.038Z,13.07
2023-05-03T18:24:07.543Z,13.08
2023-05-03T18:26:34.659Z,13.06
2023-05-03T18:29:01.773Z,13.03
2023-05-03T18:31:29.091Z,13.01
2023-05-03T18:33:56.248Z,12.98
2023-05-03T18:36:24.124Z,12.92
2023-05-03T18:38:53.871Z,12.88
2023-05-03T18:41:21.069Z,12.81
2023-05-03T18:43:48.274Z,12.75
2023-05-03T18:46:19.795Z,12.68
2023-05-03T18:48:48.035Z,12.68
2023-05-03T18:51:15.294Z,12.61
2023-05-03T18:53:43.664Z,12.61
2023-05-03T18:56:11.067Z,12.59
2023-05-03T18:58:38.479Z,12.53
2023-05-03T19:01:06.065Z,12.51
2023-05-03T19:03:33.736Z,12.41
2023-05-03T19:06:07.470Z,12.35
2023-05-03T19:08:35.755Z,12.26
2023-05-03T19:11:10.357Z,12.17
2023-05-03T19:13:37.986Z,12.04
2023-05-03T19:16:05.456Z,11.97
2023-05-03T19:18:32.749Z,11.98
2023-05-03T19:20:59.861Z,11.90
2023-05-03T19:23:27.501Z,11.85
2023-05-03T19:25:54.569Z,11.77
2023-05-03T19:28:21.746Z,11.67
2023-05-03T19:30:51.964Z,11.58
2023-05-03T19:33:20.425Z,11.51
2023-05-03T19:35:48.154Z,11.47
2023-05-03T19:38:16.054Z,11.43
2023-05-03T19:40:55.890Z,11.34
2023-05-03T19:43:23.131Z,11.35
2023-05-03T19:45:50.495Z,11.31
2023-05-03T19:48:18.420Z,11.29
2023-05-03T19:50:45.661Z,11.25
2023-05-03T19:53:38.476Z,11.20
2023-05-03T19:56:07.202Z,11.18
2023-05-03T19:58:34.254Z,11.11
2023-05-03T20:01:01.818Z,11.05
2023-05-03T20:03:29.075Z,10.99
2023-05-03T20:05:56.654Z,10.93
2023-05-03T20:08:24.461Z,10.93
2023-05-03T20:10:51.758Z,10.86
2023-05-03T20:13:19.162Z,10.83
2023-05-03T20:15:47.131Z,10.76
2023-05-03T20:18:14.296Z,10.68
2023-05-03T20:20:41.456Z,10.67
2023-05-03T20:23:08.573Z,10.72
2023-05-03T20:25:35.781Z,10.74
2023-05-03T20:28:03.201Z,10.76
2023-05-03T20:30:31.893Z,10.77
2023-05-03T20:32:59.263Z,10.71
2023-05-03T20:35:26.840Z,10.68
2023-05-03T20:37:53.945Z,10.67
2023-05-03T20:40:21.405Z,10.65
2023-05-03T20:42:48.476Z,10.62
2023-05-03T20:45:15.766Z,10.57
2023-05-03T20:47:43.056Z,10.49
2023-05-03T20:50:10.578Z,10.42
2023-05-03T20:52:38.041Z,10.32
2023-05-03T20:55:05.356Z,10.35
2023-05-03T20:57:32.480Z,10.28
2023-05-03T21:00:00.274Z,10.24
2023-05-03T21:02:27.441Z,10.17
2023-05-03T21:04:54.521Z,10.15
2023-05-03T21:07:21.560Z,10.09
2023-05-03T21:09:48.615Z,10.03
2023-05-03T21:12:15.858Z,9.92
2023-05-03T21:14:42.983Z,9.85
2023-05-03T21:17:12.384Z,9.74
2023-05-03T21:19:40.091Z,9.76
2023-05-03T21:22:11.732Z,9.74
2023-05-03T21:24:38.778Z,9.76
2023-05-03T21:27:05.831Z,9.79
2023-05-03T21:29:33.013Z,9.74
2023-05-03T21:32:00.246Z,9.70
2023-05-03T21:34:27.503Z,9.66
2023-05-03T21:36:54.590Z,9.62
2023-05-03T21:39:21.851Z,9.64
2023-05-03T21:41:48.950Z,9.63
2023-05-03T21:44:15.976Z,9.55
2023-05-03T21:46:43.391Z,9.50
2023-05-03T21:49:10.481Z,9.49
2023-05-03T21:51:37.623Z,9.47
2023-05-03T21:54:04.903Z,9.42
2023-05-03T21:56:32.076Z,9.42
2023-05-03T21:58:59.197Z,9.46
2023-05-03T22:01:26.386Z,9.47
2023-05-03T22:03:53.900Z,9.45
2023-05-03T22:06:21.925Z,9.42
2023-05-03T22:08:49.384Z,9.36
2023-05-03T22:11:16.500Z,9.33
2023-05-03T22:13:58.778Z,9.27
2023-05-03T22:16:30.676Z,9.26
2023-05-03T22:18:58.541Z,9.22
2023-05-03T22:21:25.656Z,9.22
2023-05-03T22:23:52.948Z,9.21
2023-05-03T22:26:20.088Z,9.21
2023-05-03T22:28:47.115Z,9.18
2023-05-03T22:31:14.221Z,9.12
2023-05-03T22:33:44.928Z,9.06
2023-05-03T22:36:12.576Z,9.09
2023-05-03T22:38:42.050Z,9.10
2023-05-03T22:41:11.389Z,9.08
2023-05-03T22:43:38.545Z,9.10
2023-05-03T22:46:06.168Z,9.13
2023-05-03T22:48:34.234Z,9.14
2023-05-03T22:51:01.375Z,9.12
2023-05-03T22:53:28.597Z,9.09
2023-05-03T22:56:00.961Z,9.04
2023-05-03T22:58:28.813Z,9.00
2023-05-03T23:00:56.782Z,8.95
2023-05-03T23:03:24.152Z,8.94
2023-05-03T23:05:55.040Z,8.93
2023-05-03T23:08:22.484Z,8.91
2023-05-03T23:10:49.572Z,8.96
2023-05-03T23:13:16.983Z,8.95
2023-05-03T23:15:44.325Z,8.94
2023-05-03T23:18:11.382Z,8.92
2023-05-03T23:20:38.612Z,8.83
2023-05-03T23:23:05.682Z,8.79
2023-05-03T23:25:32.777Z,8.72
2023-05-03T23:27:59.902Z,8.64
2023-05-03T23:30:28.270Z,8.63
2023-05-03T23:32:55.923Z,8.73
2023-05-03T23:35:23.479Z,8.79
2023-05-03T23:37:50.640Z,8.83
2023-05-03T23:40:18.012Z,8.79
2023-05-03T23:42:46.529Z,8.73
2023-05-03T23:45:13.646Z,8.66
2023-05-03T23:47:40.696Z,8.60
2023-05-03T23:50:08.785Z,8.54
2023-05-03T23:52:36.082Z,8.47
2023-05-03T23:55:04.317Z,8.35
2023-05-03T23:57:31.656Z,8.24
2023-05-03T23:59:58.730Z,8.16
